createdAt,value
2018-12-11T00:03:28.271Z,81.87
2018-12-11T00:08:30.469Z,81.67
2018-12-11T00:13:32.677Z,82.35
2018-12-11T00:18:34.961Z,82.78
2018-12-11T00:23:37.135Z,81.80
2018-12-11T00:28:39.213Z,80.58
2018-12-11T00:33:41.390Z,80.40
2018-12-11T00:38:43.577Z,79.22
2018-12-11T00:43:45.689Z,78.74
2018-12-11T00:48:47.966Z,77.53
2018-12-11T00:53:50.153Z,77.10
2018-12-11T00:58:52.325Z,77.23
2018-12-11T01:03:54.497Z,77.97
2018-12-11T01:08:56.651Z,78.70
2018-12-11T01:13:58.890Z,78.51
2018-12-11T01:19:01.061Z,77.61
2018-12-11T01:24:03.346Z,74.95
2018-12-11T01:29:05.509Z,76.99
2018-12-11T01:34:07.705Z,76.53
2018-12-11T01:39:09.870Z,76.18
2018-12-11T01:44:12.656Z,76.36
2018-12-11T01:49:14.743Z,74.79
2018-12-11T01:54:16.814Z,74.69
2018-12-11T01:59:18.988Z,74.11
2018-12-11T02:04:21.165Z,74.97
2018-12-11T02:09:23.381Z,74.79
2018-12-11T02:14:25.686Z,74.78
2018-12-11T02:19:27.847Z,74.85
2018-12-11T02:24:30.289Z,75.38
2018-12-11T02:29:32.587Z,75.28
2018-12-11T02:34:34.879Z,74.87
2018-12-11T02:39:37.163Z,74.36
2018-12-11T02:44:39.246Z,75.29
2018-12-11T02:49:41.321Z,74.19
2018-12-11T02:54:43.503Z,74.41
2018-12-11T02:59:46.609Z,73.67
2018-12-11T03:04:48.775Z,74.42
2018-12-11T03:09:50.877Z,74.24
2018-12-11T03:14:53.067Z,74.72
2018-12-11T03:19:55.229Z,74.61
2018-12-11T03:24:57.658Z,74.90
2018-12-11T03:29:59.739Z,74.98
2018-12-11T03:35:01.911Z,74.33
2018-12-11T03:40:04.597Z,74.02
2018-12-11T03:45:06.877Z,73.38
2018-12-11T03:50:09.674Z,73.57
2018-12-11T03:55:14.722Z,73.49
2018-12-11T04:00:17.285Z,73.48
2018-12-11T04:05:19.644Z,73.46
2018-12-11T04:10:22.869Z,73.18
2018-12-11T04:15:32.787Z,73.21
2018-12-11T04:20:34.851Z,73.22
2018-12-11T04:25:44.051Z,72.51
2018-12-11T04:30:46.342Z,72.33
2018-12-11T04:35:48.386Z,72.53
2018-12-11T04:40:50.561Z,70.94
2018-12-11T04:45:52.751Z,72.74
2018-12-11T04:51:01.838Z,72.52
2018-12-11T04:56:04.117Z,71.80
2018-12-11T05:01:06.323Z,72.16
2018-12-11T05:06:08.522Z,71.76
2018-12-11T05:11:15.061Z,72.39
2018-12-11T05:16:17.274Z,72.18
2018-12-11T05:21:19.430Z,72.47
2018-12-11T05:26:21.629Z,71.52
2018-12-11T05:31:23.809Z,72.30
2018-12-11T05:36:26.085Z,71.90
2018-12-11T05:41:28.163Z,72.29
2018-12-11T05:46:30.426Z,73.09
2018-12-11T05:51:32.641Z,73.13
2018-12-11T05:56:34.805Z,72.08
2018-12-11T06:01:36.858Z,72.41
2018-12-11T06:06:39.045Z,73.13
2018-12-11T06:11:41.245Z,73.20
2018-12-11T06:16:43.671Z,72.57
2018-12-11T06:21:45.848Z,72.56
2018-12-11T06:26:47.893Z,71.49
2018-12-11T06:31:50.074Z,71.75
2018-12-11T06:36:52.377Z,71.96
2018-12-11T06:41:54.578Z,71.56
2018-12-11T06:46:56.649Z,71.75
2018-12-11T06:51:59.235Z,71.51
2018-12-11T06:57:01.307Z,71.09
2018-12-11T07:02:03.583Z,71.51
2018-12-11T07:07:05.965Z,71.28
2018-12-11T07:12:15.187Z,71.23
2018-12-11T07:17:17.373Z,71.08
2018-12-11T07:22:19.576Z,70.64
2018-12-11T07:27:21.649Z,70.81
2018-12-11T07:32:23.981Z,71.54
2018-12-11T07:37:26.143Z,71.34
2018-12-11T07:42:28.313Z,70.72
2018-12-11T07:47:30.617Z,71.25
2018-12-11T07:52:33.030Z,71.52
2018-12-11T07:57:35.281Z,71.46
2018-12-11T08:02:37.465Z,71.63
2018-12-11T08:07:40.670Z,71.23
2018-12-11T08:12:49.758Z,71.68
2018-12-11T08:17:51.921Z,72.44
2018-12-11T08:22:54.106Z,71.31
2018-12-11T08:27:56.313Z,71.46
2018-12-11T08:32:58.377Z,70.77
2018-12-11T08:38:00.433Z,71.65
2018-12-11T08:43:02.518Z,71.68
2018-12-11T08:48:04.709Z,72.15
2018-12-11T08:53:07.358Z,72.11
2018-12-11T08:58:09.566Z,72.67
2018-12-11T09:03:18.566Z,73.75
2018-12-11T09:08:20.766Z,73.69
2018-12-11T09:13:22.855Z,73.82
2018-12-11T09:18:24.946Z,72.89
2018-12-11T09:23:27.133Z,73.21
2018-12-11T09:28:29.431Z,73.29
2018-12-11T09:33:31.726Z,72.07
2018-12-11T09:38:33.834Z,71.47
2018-12-11T09:43:35.890Z,71.96
2018-12-11T09:48:38.081Z,71.08
2018-12-11T09:53:40.203Z,72.18
2018-12-11T09:58:42.450Z,71.74
2018-12-11T10:03:44.509Z,72.05
2018-12-11T10:08:46.655Z,71.66
2018-12-11T10:13:48.886Z,72.77
2018-12-11T10:18:51.049Z,73.21
2018-12-11T10:23:53.233Z,72.44
2018-12-11T10:28:55.549Z,72.98
2018-12-11T10:33:57.864Z,72.31
2018-12-11T10:39:00.062Z,71.69
2018-12-11T10:44:02.366Z,72.50
2018-12-11T10:49:04.681Z,71.95
2018-12-11T10:54:06.885Z,71.66
2018-12-11T10:59:10.286Z,71.43
2018-12-11T11:04:12.995Z,71.52
2018-12-11T11:09:15.115Z,72.14
2018-12-11T11:14:17.435Z,70.67
2018-12-11T11:19:19.590Z,70.55
2018-12-11T11:24:21.763Z,71.21
2018-12-11T11:29:23.960Z,72.11
2018-12-11T11:34:26.002Z,71.82
2018-12-11T11:39:28.198Z,71.94
2018-12-11T11:44:30.421Z,70.41
2018-12-11T11:49:32.556Z,72.17
2018-12-11T11:54:34.809Z,72.68
2018-12-11T11:59:36.986Z,71.28
2018-12-11T12:04:39.041Z,71.51
2018-12-11T12:09:41.247Z,70.08
2018-12-11T12:14:48.908Z,69.93
2018-12-11T12:19:47.645Z,68.74
2018-12-11T12:24:54.905Z,69.51
2018-12-11T12:29:57.098Z,70.26
2018-12-11T12:34:59.259Z,69.46
2018-12-11T12:40:01.456Z,69.29
2018-12-11T12:45:03.825Z,69.73
2018-12-11T12:50:06.077Z,69.87
2018-12-11T12:55:08.201Z,69.69
2018-12-11T13:00:10.811Z,70.49
2018-12-11T13:05:13.075Z,70.24
2018-12-11T13:10:15.385Z,70.20
2018-12-11T13:15:17.466Z,69.62
2018-12-11T13:20:19.537Z,69.58
2018-12-11T13:25:21.585Z,69.86
2018-12-11T13:30:23.630Z,70.48
2018-12-11T13:35:25.688Z,68.74
2018-12-11T13:40:28.057Z,68.84
2018-12-11T13:45:30.157Z,70.39
2018-12-11T13:50:32.656Z,69.81
2018-12-11T13:55:34.717Z,69.92
2018-12-11T14:00:36.774Z,70.44
2018-12-11T14:05:38.934Z,69.54
2018-12-11T14:10:41.019Z,70.40
2018-12-11T14:15:43.105Z,69.32
2018-12-11T14:20:45.269Z,68.99
2018-12-11T14:25:47.420Z,69.55
2018-12-11T14:30:50.593Z,69.84
2018-12-11T14:35:52.925Z,69.14
2018-12-11T14:40:55.102Z,68.57
2018-12-11T14:45:57.273Z,67.48
2018-12-11T14:50:59.348Z,68.85
2018-12-11T14:56:01.569Z,68.77
2018-12-11T15:01:03.857Z,69.05
2018-12-11T15:06:05.926Z,68.87
2018-12-11T15:11:08.271Z,69.20
2018-12-11T15:16:10.770Z,70.08
2018-12-11T15:21:12.948Z,69.42
2018-12-11T15:26:15.226Z,69.61
2018-12-11T15:31:19.250Z,68.95
2018-12-11T15:36:21.419Z,69.61
2018-12-11T15:41:23.601Z,70.77
2018-12-11T15:46:26.025Z,72.94
2018-12-11T15:51:28.209Z,74.47
2018-12-11T15:56:30.509Z,73.86
2018-12-11T16:01:32.952Z,74.21
2018-12-11T16:06:35.245Z,74.99
2018-12-11T16:11:37.724Z,73.05
2018-12-11T16:16:40.098Z,73.76
2018-12-11T16:21:42.242Z,73.19
2018-12-11T16:26:44.397Z,74.04
2018-12-11T16:31:46.686Z,73.75
2018-12-11T16:36:48.857Z,74.05
2018-12-11T16:41:51.018Z,74.05
2018-12-11T16:46:53.354Z,74.48
2018-12-11T16:51:55.443Z,75.07
2018-12-11T16:56:57.828Z,75.87
2018-12-11T17:02:00.158Z,76.17
2018-12-11T17:07:02.425Z,76.33
2018-12-11T17:12:12.510Z,75.79
2018-12-11T17:17:14.861Z,76.32
2018-12-11T17:22:17.002Z,75.01
2018-12-11T17:27:19.264Z,73.65
2018-12-11T17:32:21.651Z,73.43
2018-12-11T17:37:23.897Z,72.90
2018-12-11T17:42:26.229Z,74.10
2018-12-11T17:47:28.418Z,74.54
2018-12-11T17:52:30.474Z,74.11
2018-12-11T17:57:32.813Z,73.60
2018-12-11T18:02:37.171Z,73.81
2018-12-11T18:07:39.465Z,74.19
2018-12-11T18:12:41.582Z,74.18
2018-12-11T18:17:43.661Z,75.12
2018-12-11T18:22:45.933Z,75.71
2018-12-11T18:27:48.111Z,76.73
2018-12-11T18:32:50.216Z,76.98
2018-12-11T18:37:52.441Z,76.72
2018-12-11T18:42:54.493Z,76.94
2018-12-11T18:47:56.722Z,75.65
2018-12-11T18:52:58.797Z,76.02
2018-12-11T18:58:01.272Z,74.89
2018-12-11T19:03:03.907Z,74.97
2018-12-11T19:08:07.389Z,74.46
2018-12-11T19:13:09.559Z,75.13
2018-12-11T19:18:11.957Z,74.46
2018-12-11T19:23:28.509Z,75.31
2018-12-11T19:28:30.773Z,75.46
2018-12-11T19:33:32.957Z,74.64
2018-12-11T19:38:35.257Z,75.19
2018-12-11T19:43:37.453Z,74.83
2018-12-11T19:48:39.762Z,76.62
2018-12-11T19:53:42.036Z,79.32
2018-12-11T19:58:44.649Z,80.40
2018-12-11T20:03:46.854Z,80.12
2018-12-11T20:08:49.143Z,80.82
2018-12-11T20:13:51.342Z,80.96
2018-12-11T20:18:53.498Z,81.03
2018-12-11T20:23:55.909Z,80.54
2018-12-11T20:28:58.214Z,79.64
2018-12-11T20:34:00.763Z,79.31
2018-12-11T20:39:04.802Z,79.69
2018-12-11T20:44:13.758Z,79.70
2018-12-11T20:49:15.815Z,79.29
2018-12-11T20:54:17.857Z,80.23
2018-12-11T20:59:26.957Z,79.57
2018-12-11T21:04:30.006Z,79.26
2018-12-11T21:09:32.569Z,79.83
2018-12-11T21:14:34.853Z,79.35
2018-12-11T21:19:37.768Z,79.03
2018-12-11T21:24:39.917Z,78.81
2018-12-11T21:29:42.013Z,78.47
2018-12-11T21:34:44.166Z,78.88
2018-12-11T21:39:46.222Z,79.02
2018-12-11T21:44:55.241Z,80.02
2018-12-11T21:49:57.339Z,80.74
2018-12-11T21:55:00.253Z,80.51
2018-12-11T22:00:03.102Z,80.38
2018-12-11T22:05:06.986Z,81.64
2018-12-11T22:10:09.486Z,82.07
2018-12-11T22:15:11.961Z,82.19
2018-12-11T22:20:14.143Z,82.01
2018-12-11T22:25:19.311Z,82.39
2018-12-11T22:30:21.490Z,82.87
2018-12-11T22:35:23.653Z,83.53
2018-12-11T22:40:25.833Z,83.42
2018-12-11T22:45:27.994Z,83.21
2018-12-11T22:50:30.157Z,83.47
2018-12-11T22:55:32.504Z,83.11
2018-12-11T23:00:34.773Z,82.93
2018-12-11T23:05:38.917Z,83.58
2018-12-11T23:10:41.499Z,83.55
2018-12-11T23:15:44.497Z,83.67
2018-12-11T23:20:46.577Z,83.15
2018-12-11T23:25:48.777Z,83.49
2018-12-11T23:30:51.133Z,82.30
2018-12-11T23:35:53.745Z,82.75
2018-12-11T23:40:56.051Z,83.03
2018-12-11T23:45:58.129Z,83.42
2018-12-11T23:51:00.205Z,83.62
2018-12-11T23:56:02.618Z,83.75
